createdAt,value
2019-03-06T00:02:20.133Z,68.47
2019-03-06T00:04:51.242Z,67.69
2019-03-06T00:07:22.707Z,68.53
2019-03-06T00:09:54.062Z,68.85
2019-03-06T00:12:25.663Z,68.61
2019-03-06T00:14:56.928Z,68.88
2019-03-06T00:17:28.690Z,68.75
2019-03-06T00:20:00.804Z,68.39
2019-03-06T00:22:33.463Z,68.00
2019-03-06T00:25:04.744Z,67.94
2019-03-06T00:27:35.726Z,67.99
2019-03-06T00:30:07.891Z,68.19
2019-03-06T00:32:39.641Z,68.41
2019-03-06T00:35:16.201Z,68.21
2019-03-06T00:37:47.465Z,68.17
2019-03-06T00:40:33.362Z,68.26
2019-03-06T00:43:04.678Z,68.33
2019-03-06T00:45:36.056Z,68.15
2019-03-06T00:48:07.189Z,68.12
2019-03-06T00:50:38.763Z,68.48
2019-03-06T00:53:09.745Z,68.39
2019-03-06T00:55:40.744Z,68.45
2019-03-06T00:58:11.997Z,68.76
2019-03-06T01:00:43.824Z,68.66
2019-03-06T01:03:15.409Z,69.03
2019-03-06T01:05:46.809Z,68.74
2019-03-06T01:08:18.388Z,68.49
2019-03-06T01:10:49.522Z,68.21
2019-03-06T01:13:20.747Z,68.17
2019-03-06T01:15:51.800Z,68.28
2019-03-06T01:18:23.370Z,68.36
2019-03-06T01:20:54.441Z,68.54
2019-03-06T01:23:25.574Z,68.31
2019-03-06T01:25:57.032Z,68.06
2019-03-06T01:28:28.064Z,68.22
2019-03-06T01:30:59.279Z,68.32
2019-03-06T01:33:35.651Z,68.54
2019-03-06T01:36:28.722Z,68.74
2019-03-06T01:39:19.584Z,68.16
2019-03-06T01:41:56.601Z,68.88
2019-03-06T01:44:32.762Z,68.75
2019-03-06T01:47:04.039Z,68.50
2019-03-06T01:49:35.006Z,68.02
2019-03-06T01:52:06.352Z,68.59
2019-03-06T01:54:37.331Z,68.44
2019-03-06T01:57:08.701Z,68.61
2019-03-06T01:59:39.691Z,68.46
2019-03-06T02:02:11.022Z,68.67
2019-03-06T02:04:44.057Z,68.45
2019-03-06T02:07:15.686Z,68.29
2019-03-06T02:09:47.376Z,68.86
2019-03-06T02:12:18.613Z,68.43
2019-03-06T02:14:49.694Z,68.29
2019-03-06T02:17:21.012Z,68.03
2019-03-06T02:19:52.680Z,67.94
2019-03-06T02:22:23.914Z,67.75
2019-03-06T02:24:55.889Z,68.21
2019-03-06T02:27:27.187Z,68.34
2019-03-06T02:29:58.163Z,68.99
2019-03-06T02:32:29.632Z,69.16
2019-03-06T02:35:01.166Z,68.86
2019-03-06T02:37:32.120Z,68.25
2019-03-06T02:42:41.882Z,67.88
2019-03-06T02:45:14.819Z,67.34
2019-03-06T02:47:45.982Z,67.84
2019-03-06T02:50:17.489Z,67.12
2019-03-06T02:52:49.225Z,67.24
2019-03-06T02:55:20.490Z,67.04
2019-03-06T02:58:00.405Z,67.25
2019-03-06T03:00:56.714Z,67.49
2019-03-06T03:03:38.430Z,67.30
2019-03-06T03:06:16.003Z,67.08
2019-03-06T03:08:46.961Z,67.87
2019-03-06T03:11:17.921Z,67.89
2019-03-06T03:13:49.256Z,68.49
2019-03-06T03:16:20.739Z,68.27
2019-03-06T03:18:51.706Z,68.13
2019-03-06T03:21:22.713Z,67.97
2019-03-06T03:23:54.005Z,67.69
2019-03-06T03:26:25.290Z,67.21
2019-03-06T03:28:56.578Z,67.21
2019-03-06T03:31:28.579Z,67.43
2019-03-06T03:33:59.801Z,67.11
2019-03-06T03:36:31.491Z,67.25
2019-03-06T03:39:02.520Z,67.33
2019-03-06T03:41:35.278Z,67.30
2019-03-06T03:44:06.900Z,67.85
2019-03-06T03:46:38.857Z,67.31
2019-03-06T03:49:10.488Z,67.09
2019-03-06T03:51:41.453Z,67.50
2019-03-06T03:54:12.776Z,67.27
2019-03-06T03:56:44.007Z,67.40
2019-03-06T03:59:15.285Z,67.37
2019-03-06T04:01:46.506Z,67.68
2019-03-06T04:04:17.758Z,67.58
2019-03-06T04:06:48.741Z,67.44
2019-03-06T04:09:20.805Z,67.62
2019-03-06T04:11:51.966Z,67.41
2019-03-06T04:14:23.255Z,67.12
2019-03-06T04:16:54.809Z,67.00
2019-03-06T04:19:26.519Z,66.85
2019-03-06T04:21:57.812Z,66.67
2019-03-06T04:24:29.567Z,66.47
2019-03-06T04:27:01.145Z,66.74
2019-03-06T04:29:32.370Z,66.74
2019-03-06T04:32:03.413Z,67.03
2019-03-06T04:34:34.364Z,66.92
2019-03-06T04:37:05.586Z,67.24
2019-03-06T04:39:36.567Z,67.41
2019-03-06T04:42:08.186Z,67.10
2019-03-06T04:44:39.152Z,66.85
2019-03-06T04:47:10.770Z,67.04
2019-03-06T04:49:52.243Z,66.65
2019-03-06T04:52:15.461Z,67.25
2019-03-06T04:54:46.697Z,67.46
2019-03-06T04:57:17.949Z,67.18
2019-03-06T04:59:48.913Z,66.68
2019-03-06T05:02:20.101Z,67.24
2019-03-06T05:04:51.389Z,67.18
2019-03-06T05:07:23.566Z,67.08
2019-03-06T05:09:55.008Z,66.90
2019-03-06T05:12:26.618Z,67.10
2019-03-06T05:14:57.899Z,67.20
2019-03-06T05:17:38.512Z,67.46
2019-03-06T05:20:10.187Z,67.23
2019-03-06T05:22:41.354Z,67.09
2019-03-06T05:25:12.679Z,67.03
2019-03-06T05:27:44.720Z,66.67
2019-03-06T05:30:16.828Z,66.85
2019-03-06T05:32:48.573Z,67.12
2019-03-06T05:35:57.451Z,67.00
2019-03-06T05:38:38.329Z,67.06
2019-03-06T05:41:09.295Z,67.42
2019-03-06T05:43:40.567Z,66.92
2019-03-06T05:46:11.915Z,66.98
2019-03-06T05:48:43.875Z,67.33
2019-03-06T05:51:15.218Z,67.19
2019-03-06T05:53:46.888Z,67.21
2019-03-06T05:56:18.450Z,67.10
2019-03-06T05:58:50.075Z,67.04
2019-03-06T06:01:21.144Z,67.08
2019-03-06T06:03:52.281Z,67.08
2019-03-06T06:06:23.420Z,66.72
2019-03-06T06:08:54.383Z,66.95
2019-03-06T06:11:25.638Z,66.98
2019-03-06T06:13:56.609Z,67.47
2019-03-06T06:16:27.836Z,67.45
2019-03-06T06:19:01.629Z,67.48
2019-03-06T06:21:45.326Z,67.99
2019-03-06T06:24:25.201Z,67.69
2019-03-06T06:26:56.164Z,67.31
2019-03-06T06:29:27.764Z,67.20
2019-03-06T06:32:00.115Z,67.37
2019-03-06T06:34:31.727Z,67.29
2019-03-06T06:37:02.806Z,67.26
2019-03-06T06:39:34.084Z,67.38
2019-03-06T06:42:05.460Z,66.65
2019-03-06T06:44:37.026Z,66.78
2019-03-06T06:47:08.333Z,67.25
2019-03-06T06:49:39.387Z,67.30
2019-03-06T06:53:00.660Z,67.67
2019-03-06T06:55:54.973Z,67.11
2019-03-06T06:58:42.578Z,66.85
2019-03-06T07:02:32.703Z,66.95
2019-03-06T07:05:31.279Z,67.27
2019-03-06T07:08:21.227Z,67.47
2019-03-06T07:11:23.732Z,67.77
2019-03-06T07:14:32.096Z,68.19
2019-03-06T07:17:22.174Z,68.55
2019-03-06T07:20:00.544Z,68.82
2019-03-06T07:22:46.111Z,68.69
2019-03-06T07:25:45.124Z,68.19
2019-03-06T07:28:45.539Z,67.71
2019-03-06T07:31:39.563Z,67.83
2019-03-06T07:34:26.435Z,67.68
2019-03-06T07:37:05.451Z,67.81
2019-03-06T07:39:42.786Z,68.40
2019-03-06T07:42:32.233Z,67.96
2019-03-06T07:46:00.343Z,67.94
2019-03-06T07:48:46.744Z,68.02
2019-03-06T07:51:42.321Z,67.88
2019-03-06T07:54:36.143Z,67.58
2019-03-06T07:57:38.846Z,67.20
2019-03-06T08:00:21.638Z,67.17
2019-03-06T08:03:38.260Z,66.82
2019-03-06T08:06:09.818Z,66.84
2019-03-06T08:08:40.886Z,66.96
2019-03-06T08:11:23.595Z,66.52
2019-03-06T08:14:09.449Z,66.61
2019-03-06T08:16:46.561Z,65.68
2019-03-06T08:19:29.142Z,65.69
2019-03-06T08:22:10.967Z,65.05
2019-03-06T08:24:53.348Z,65.04
2019-03-06T08:27:26.285Z,65.30
2019-03-06T08:29:57.503Z,65.44
2019-03-06T08:32:33.946Z,65.41
2019-03-06T08:35:06.300Z,65.01
2019-03-06T08:37:37.699Z,64.11
2019-03-06T08:40:09.149Z,63.92
2019-03-06T08:42:40.233Z,64.32
2019-03-06T08:45:12.812Z,64.71
2019-03-06T08:47:52.475Z,63.26
2019-03-06T08:50:38.162Z,62.97
2019-03-06T08:53:15.006Z,62.90
2019-03-06T08:56:04.432Z,62.14
2019-03-06T08:58:51.762Z,61.74
2019-03-06T09:02:03.536Z,60.91
2019-03-06T09:05:00.475Z,59.43
2019-03-06T09:07:43.199Z,58.61
2019-03-06T09:10:32.505Z,59.67
2019-03-06T09:13:12.982Z,58.80
2019-03-06T09:16:02.845Z,59.34
2019-03-06T09:18:52.897Z,59.27
2019-03-06T09:21:40.777Z,58.48
2019-03-06T09:24:33.791Z,56.82
2019-03-06T09:27:12.964Z,56.76
2019-03-06T09:29:53.562Z,58.30
2019-03-06T09:32:43.697Z,57.07
2019-03-06T09:35:32.667Z,55.86
2019-03-06T09:38:17.550Z,57.53
2019-03-06T09:41:06.664Z,57.24
2019-03-06T09:43:58.360Z,56.37
2019-03-06T09:46:57.308Z,57.91
2019-03-06T09:49:34.827Z,57.67
2019-03-06T09:52:23.908Z,57.43
2019-03-06T09:55:22.707Z,57.60
2019-03-06T09:58:01.716Z,57.30
2019-03-06T10:00:46.815Z,56.89
2019-03-06T10:03:41.623Z,56.34
2019-03-06T10:06:32.726Z,57.17
2019-03-06T10:09:17.667Z,56.69
2019-03-06T10:11:58.793Z,57.22
2019-03-06T10:14:36.698Z,57.34
2019-03-06T10:17:14.664Z,57.32
2019-03-06T10:19:50.065Z,57.69
2019-03-06T10:22:21.599Z,57.85
2019-03-06T10:24:52.779Z,57.70
2019-03-06T10:27:24.397Z,57.46
2019-03-06T10:29:55.456Z,57.51
2019-03-06T10:32:26.930Z,57.20
2019-03-06T10:34:58.581Z,57.19
2019-03-06T10:37:29.616Z,57.36
2019-03-06T10:40:05.738Z,57.30
2019-03-06T10:42:38.692Z,57.26
2019-03-06T10:45:10.370Z,56.84
2019-03-06T10:47:41.338Z,57.44
2019-03-06T10:50:15.742Z,56.35
2019-03-06T10:52:47.041Z,56.85
2019-03-06T10:55:18.680Z,56.61
2019-03-06T10:57:50.106Z,55.71
2019-03-06T11:00:27.021Z,56.54
2019-03-06T11:02:58.511Z,57.19
2019-03-06T11:05:34.043Z,56.42
2019-03-06T11:08:06.658Z,56.25
2019-03-06T11:10:37.802Z,56.34
2019-03-06T11:13:12.770Z,56.47
2019-03-06T11:15:45.368Z,56.29
2019-03-06T11:18:17.390Z,56.50
2019-03-06T11:20:48.967Z,56.16
2019-03-06T11:23:20.275Z,56.95
2019-03-06T11:25:51.727Z,55.89
2019-03-06T11:28:23.011Z,56.00
2019-03-06T11:30:55.610Z,55.14
2019-03-06T11:33:27.417Z,54.86
2019-03-06T11:35:59.503Z,54.81
2019-03-06T11:38:30.942Z,55.17
2019-03-06T11:41:05.175Z,55.59
2019-03-06T11:43:36.704Z,54.87
2019-03-06T11:46:09.486Z,54.87
2019-03-06T11:48:40.929Z,54.51
2019-03-06T11:51:11.991Z,54.32
2019-03-06T11:53:42.958Z,48.37
2019-03-06T11:56:14.954Z,50.62
2019-03-06T11:58:46.720Z,48.83
2019-03-06T12:01:22.644Z,45.52
2019-03-06T12:03:54.369Z,44.67
2019-03-06T12:06:25.677Z,45.93
2019-03-06T12:08:56.878Z,43.31
2019-03-06T12:11:28.817Z,42.69
2019-03-06T12:13:59.811Z,43.37
2019-03-06T12:16:31.635Z,40.65
2019-03-06T12:19:02.993Z,40.69
2019-03-06T12:21:34.417Z,39.07
2019-03-06T12:24:05.704Z,39.67
2019-03-06T12:26:37.010Z,41.07
2019-03-06T12:29:08.395Z,40.72
2019-03-06T12:31:39.793Z,41.40
2019-03-06T12:34:11.303Z,41.13
2019-03-06T12:36:43.001Z,41.63
2019-03-06T12:39:15.022Z,41.64
2019-03-06T12:41:46.154Z,41.57
2019-03-06T12:44:17.566Z,42.18
2019-03-06T12:46:52.379Z,41.34
2019-03-06T12:49:25.876Z,39.34
2019-03-06T12:51:57.036Z,37.81
2019-03-06T12:54:30.575Z,38.65
2019-03-06T12:57:02.452Z,40.02
2019-03-06T12:59:33.849Z,38.05
2019-03-06T13:02:04.928Z,38.17
2019-03-06T13:04:36.231Z,39.65
2019-03-06T13:07:07.279Z,41.14
2019-03-06T13:09:38.377Z,38.32
2019-03-06T13:12:11.742Z,38.43
2019-03-06T13:14:42.964Z,39.18
2019-03-06T13:17:14.038Z,36.38
2019-03-06T13:19:45.476Z,38.01
2019-03-06T13:22:17.154Z,38.58
2019-03-06T13:24:48.476Z,38.16
2019-03-06T13:27:20.055Z,37.92
2019-03-06T13:29:51.339Z,38.65
2019-03-06T13:32:24.031Z,38.01
2019-03-06T13:35:00.270Z,38.39
2019-03-06T13:37:31.954Z,38.66
2019-03-06T13:40:03.476Z,37.94
2019-03-06T13:42:35.989Z,36.39
2019-03-06T13:45:07.521Z,36.56
2019-03-06T13:47:38.917Z,35.31
2019-03-06T13:50:11.674Z,36.80
2019-03-06T13:52:43.325Z,34.79
2019-03-06T13:55:14.463Z,36.01
2019-03-06T13:57:46.498Z,36.69
2019-03-06T14:00:19.068Z,36.92
2019-03-06T14:02:50.669Z,37.56
2019-03-06T14:05:23.255Z,37.53
2019-03-06T14:07:56.667Z,38.97
2019-03-06T14:10:27.427Z,38.65
2019-03-06T14:12:58.857Z,37.44
2019-03-06T14:15:30.263Z,37.16
2019-03-06T14:18:01.551Z,37.89
2019-03-06T14:20:34.099Z,38.72
2019-03-06T14:23:06.098Z,39.63
2019-03-06T14:25:37.441Z,39.35
2019-03-06T14:28:08.932Z,39.47
2019-03-06T14:30:40.961Z,40.46
2019-03-06T14:33:12.724Z,40.56
2019-03-06T14:35:44.253Z,39.63
2019-03-06T14:38:15.703Z,40.03
2019-03-06T14:40:48.445Z,40.23
2019-03-06T14:43:21.261Z,40.15
2019-03-06T14:45:52.663Z,40.48
2019-03-06T14:48:24.376Z,41.26
2019-03-06T14:50:55.673Z,41.19
2019-03-06T14:53:26.890Z,40.55
2019-03-06T14:55:58.614Z,41.14
2019-03-06T14:58:29.988Z,41.66
2019-03-06T15:01:01.465Z,41.60
2019-03-06T15:03:34.126Z,42.03
2019-03-06T15:06:06.050Z,42.22
2019-03-06T15:08:38.166Z,42.47
2019-03-06T15:11:10.418Z,42.83
2019-03-06T15:13:41.642Z,42.86
2019-03-06T15:16:12.700Z,42.64
2019-03-06T15:18:44.335Z,41.85
2019-03-06T15:21:27.435Z,41.84
2019-03-06T15:23:58.704Z,41.81
2019-03-06T15:26:30.112Z,41.38
2019-03-06T15:29:01.894Z,41.88
2019-03-06T15:31:35.884Z,41.92
2019-03-06T15:34:07.714Z,42.47
2019-03-06T15:36:38.880Z,41.77
2019-03-06T15:39:30.684Z,42.45
2019-03-06T15:42:04.394Z,43.13
2019-03-06T15:44:36.099Z,43.37
2019-03-06T15:47:07.288Z,43.46
2019-03-06T15:49:38.795Z,43.77
2019-03-06T15:52:11.900Z,43.80
2019-03-06T15:54:43.827Z,43.90
2019-03-06T15:57:14.903Z,44.63
2019-03-06T15:59:46.149Z,44.74
2019-03-06T16:02:17.402Z,45.25
2019-03-06T16:04:49.000Z,45.40
2019-03-06T16:07:20.943Z,45.40
2019-03-06T16:09:52.468Z,45.12
2019-03-06T16:12:23.623Z,45.16
2019-03-06T16:14:54.978Z,44.75
2019-03-06T16:17:26.107Z,44.86
2019-03-06T16:19:57.963Z,44.36
2019-03-06T16:22:29.067Z,45.53
2019-03-06T16:25:00.761Z,45.92
2019-03-06T16:27:32.028Z,46.36
2019-03-06T16:30:04.003Z,46.91
2019-03-06T16:32:35.418Z,47.22
2019-03-06T16:35:07.077Z,47.52
2019-03-06T16:37:38.465Z,47.43
2019-03-06T16:40:16.738Z,47.13
2019-03-06T16:42:48.437Z,46.88
2019-03-06T16:45:21.291Z,47.07
2019-03-06T16:47:53.171Z,46.60
2019-03-06T16:50:26.238Z,47.00
2019-03-06T16:52:57.531Z,46.63
2019-03-06T16:55:29.474Z,46.74
2019-03-06T16:58:00.959Z,46.76
2019-03-06T17:00:33.537Z,46.93
2019-03-06T17:03:04.856Z,47.30
2019-03-06T17:05:36.398Z,47.32
2019-03-06T17:08:09.266Z,47.46
2019-03-06T17:10:56.423Z,48.12
2019-03-06T17:13:28.435Z,48.58
2019-03-06T17:15:59.750Z,47.67
2019-03-06T17:18:30.843Z,48.19
2019-03-06T17:21:02.381Z,48.05
2019-03-06T17:23:34.209Z,48.14
2019-03-06T17:26:05.446Z,48.80
2019-03-06T17:28:36.775Z,48.90
2019-03-06T17:31:08.010Z,49.67
2019-03-06T17:33:40.176Z,50.00
2019-03-06T17:36:11.418Z,49.97
2019-03-06T17:38:42.738Z,49.92
2019-03-06T17:41:14.102Z,49.46
2019-03-06T17:43:46.348Z,49.50
2019-03-06T17:46:18.122Z,49.60
2019-03-06T17:48:49.213Z,50.31
2019-03-06T17:51:20.606Z,50.18
2019-03-06T17:53:51.956Z,49.84
2019-03-06T17:56:23.568Z,50.15
2019-03-06T17:58:56.439Z,50.12
2019-03-06T18:01:28.065Z,50.19
2019-03-06T18:04:09.213Z,49.51
2019-03-06T18:06:40.501Z,50.31
2019-03-06T18:09:11.721Z,48.96
2019-03-06T18:11:44.438Z,49.42
2019-03-06T18:14:16.099Z,47.83
2019-03-06T18:16:48.336Z,46.12
2019-03-06T18:19:19.918Z,45.04
2019-03-06T18:21:50.970Z,44.86
2019-03-06T18:24:22.705Z,44.66
2019-03-06T18:26:55.663Z,45.63
2019-03-06T18:29:27.869Z,46.74
2019-03-06T18:31:59.010Z,48.57
2019-03-06T18:34:30.431Z,48.79
2019-03-06T18:37:01.777Z,49.38
2019-03-06T18:39:34.519Z,49.69
2019-03-06T18:42:06.215Z,50.63
2019-03-06T18:44:37.844Z,50.77
2019-03-06T18:47:09.198Z,50.90
2019-03-06T18:49:40.830Z,50.68
2019-03-06T18:52:13.901Z,50.62
2019-03-06T18:54:46.566Z,49.60
2019-03-06T18:57:17.614Z,48.99
2019-03-06T18:59:49.070Z,49.10
2019-03-06T19:02:20.197Z,49.49
2019-03-06T19:04:52.909Z,50.24
2019-03-06T19:07:24.325Z,49.88
2019-03-06T19:09:55.470Z,50.96
2019-03-06T19:12:27.417Z,50.99
2019-03-06T19:14:59.747Z,50.71
2019-03-06T19:17:31.647Z,50.70
2019-03-06T19:20:02.963Z,49.72
2019-03-06T19:22:34.259Z,49.28
2019-03-06T19:25:05.745Z,48.72
2019-03-06T19:27:37.551Z,47.83
2019-03-06T19:30:16.670Z,47.76
2019-03-06T19:32:48.209Z,47.23
2019-03-06T19:35:20.773Z,46.78
2019-03-06T19:37:52.471Z,46.14
2019-03-06T19:40:23.740Z,45.69
2019-03-06T19:42:55.192Z,45.33
2019-03-06T19:45:26.601Z,45.90
2019-03-06T19:47:58.218Z,46.44
2019-03-06T19:50:29.624Z,46.16
2019-03-06T19:53:00.586Z,46.42
2019-03-06T19:55:32.633Z,46.12
2019-03-06T19:58:06.298Z,45.35
2019-03-06T20:00:37.806Z,45.13
2019-03-06T20:03:09.723Z,45.36
2019-03-06T20:05:41.811Z,45.16
2019-03-06T20:08:13.955Z,45.51
2019-03-06T20:10:46.660Z,46.11
2019-03-06T20:13:17.814Z,45.66
2019-03-06T20:15:49.560Z,46.12
2019-03-06T20:18:21.945Z,44.81
2019-03-06T20:20:53.023Z,44.76
2019-03-06T20:23:24.783Z,43.94
2019-03-06T20:25:55.878Z,43.55
2019-03-06T20:28:26.905Z,43.68
2019-03-06T20:30:58.438Z,42.89
2019-03-06T20:33:29.570Z,43.08
2019-03-06T20:36:00.567Z,43.72
2019-03-06T20:38:32.686Z,43.85
2019-03-06T20:41:04.822Z,44.20
2019-03-06T20:43:36.379Z,43.90
2019-03-06T20:46:07.910Z,44.14
2019-03-06T20:48:39.640Z,43.80
2019-03-06T20:51:10.952Z,43.78
2019-03-06T20:53:42.593Z,45.35
2019-03-06T20:56:13.927Z,45.40
2019-03-06T20:58:45.159Z,46.22
2019-03-06T21:01:16.519Z,45.57
2019-03-06T21:03:47.863Z,45.74
2019-03-06T21:06:19.265Z,46.61
2019-03-06T21:08:50.863Z,46.25
2019-03-06T21:11:22.173Z,45.61
2019-03-06T21:13:53.489Z,45.47
2019-03-06T21:16:26.741Z,45.87
2019-03-06T21:18:59.829Z,45.46
2019-03-06T21:21:31.188Z,45.82
2019-03-06T21:24:02.502Z,46.47
2019-03-06T21:26:34.896Z,46.57
2019-03-06T21:29:05.872Z,45.91
2019-03-06T21:31:36.940Z,46.00
2019-03-06T21:34:08.890Z,44.88
2019-03-06T21:36:40.258Z,45.11
2019-03-06T21:39:23.137Z,44.78
2019-03-06T21:41:54.568Z,44.66
2019-03-06T21:44:26.935Z,43.90
2019-03-06T21:46:58.310Z,44.20
2019-03-06T21:49:29.905Z,43.86
2019-03-06T21:52:01.396Z,43.79
2019-03-06T21:54:34.650Z,42.67
2019-03-06T21:57:05.646Z,43.38
2019-03-06T21:59:38.197Z,42.86
2019-03-06T22:02:10.051Z,45.49
2019-03-06T22:04:42.691Z,45.37
2019-03-06T22:07:13.697Z,45.53
2019-03-06T22:09:44.694Z,45.11
2019-03-06T22:12:15.766Z,45.44
2019-03-06T22:14:46.994Z,45.35
2019-03-06T22:17:18.251Z,46.08
2019-03-06T22:19:49.313Z,45.41
2019-03-06T22:22:20.553Z,45.77
2019-03-06T22:24:52.477Z,46.42
2019-03-06T22:27:23.473Z,45.61
2019-03-06T22:29:54.723Z,45.97
2019-03-06T22:32:26.034Z,46.50
2019-03-06T22:34:57.017Z,46.54
2019-03-06T22:37:28.484Z,46.69
2019-03-06T22:39:59.463Z,46.15
2019-03-06T22:42:31.323Z,46.52
2019-03-06T22:45:02.775Z,46.54
2019-03-06T22:47:35.101Z,45.51
2019-03-06T22:50:08.409Z,45.43
2019-03-06T22:52:39.920Z,45.95
2019-03-06T22:55:14.204Z,45.43
2019-03-06T22:57:46.509Z,46.44
2019-03-06T23:00:44.120Z,45.81
2019-03-06T23:03:17.495Z,47.25
2019-03-06T23:05:49.428Z,47.11
2019-03-06T23:08:20.430Z,47.20
2019-03-06T23:10:52.357Z,46.75
2019-03-06T23:13:23.650Z,46.36
2019-03-06T23:15:55.175Z,45.80
2019-03-06T23:18:26.260Z,46.38
2019-03-06T23:20:57.223Z,46.78
2019-03-06T23:23:28.871Z,45.84
2019-03-06T23:26:00.461Z,46.89
2019-03-06T23:28:31.470Z,47.03
2019-03-06T23:31:02.786Z,47.14
2019-03-06T23:33:35.893Z,47.11
2019-03-06T23:36:07.413Z,46.96
2019-03-06T23:38:38.394Z,47.49
2019-03-06T23:41:09.707Z,48.70
2019-03-06T23:43:41.385Z,48.24
2019-03-06T23:46:12.738Z,48.13
2019-03-06T23:48:43.973Z,48.06
2019-03-06T23:51:23.297Z,48.25
2019-03-06T23:53:55.495Z,47.66
2019-03-06T23:56:26.453Z,47.93
2019-03-06T23:58:58.773Z,48.01
